Terminal Aerodrome Forecast
Issued by NWS

Home | Current Version | Previous Version | Text Only | Print | Product List | Glossary On
Versions: 1 2 3 4 5 6 7 8 9 10 11 12
984
FTPA31 PHFO 010530
TAFHJR
TAF
PHJR 010530Z 0106/0206 04005KT P6SM FEW025 SCT070
     FM012000 07010G15KT P6SM SCT030 SCT070
     FM020500 05005KT P6SM FEW025 SCT060=

USA.gov is the U.S. government's official web portal to all federal, state and local government web resources and services.